Kerens, Texas
Current Conditions -  °F | °C
As of 4:53 AM on Tuesday 21 Oct 2014 (Local Time) from KCRS Reporting Station
Moderate Fog Moderate Fog  
Wind Chill: 57°   Ceiling: 400
Heat Index: 57°   Visibility: 0.25mi
Dew Point: 55°   Wind: 0mph
Humidity: 93%   Direction: NA
Pressure: 30.05"   Gusts: NA
Location:  32.13°N, 96.23°W
Report Text: KCRS 210953Z AUTO 00000KT 1/4SM FG VV004 14/13 A3005 RMK AO2 SLP174 T01390128
Loading
Personal Weather Stations






























Interactive Weather Map
Tropical Storm Tracking
New forecast layout! Learn more

10-Day Weather Forecast

Advertisements
Track Severe Weather on mobile